Terminal Aerodrome Forecast
Issued by NWS Bismarck, ND

Home | Current Version | Previous Version | Text Only | Print | Product List | Glossary Off
Versions: 1 2 3 4 5 6 7 8 9 10 11 12 13 14 15 16 17 18 19 20

000
FTUS43 KBIS 281400 AAA
TAFISN
TAF AMD
KISN 281431Z 2815/2912 02011KT P6SM VCSH BKN015 OVC060
      TEMPO 2816/2820 SCT015 BKN035 OVC070
     FM282100 06014KT P6SM VCSH BKN025 OVC035
     FM290300 07010KT 5SM BR BKN009 OVC015
     FM290600 08010KT 5SM BR BKN007 OVC010=

USA.gov is the U.S. government's official web portal to all federal, state and local government web resources and services.